SKBO

El Dorado International Airport

Airport
ICAO code
SKBO
IATA Code
BOG
Summary
ICAO Region
CARSAM
ICAO Territory
Location

Fontibon, Cundinamarca Department

Serving
Bogota
Elevation
8361 ft
Coordinates
4° 42' 5" N , 74° 8' 40" W
KCC
Cfb
Airport RE
Hot and High Operations
Airport WX
Lightning
Metar
Observation
SKBO 110900Z VRB02KT 9999 SCT017 SCT030 10/08 Q1028 NOSIG RMK A3036
Station
Bogota / Eldorado
Date/Time
2022-08-11 09:00:00
Wind speed
02 kts
Lowest cloud amount
scattered clouds
Temperature
10°C
Dew point
8°C
Humidity
87%
QNH
1028 hPa
Weather condition
n/a

El Dorado International Airport is an international airport located in Bogotá, Colombia.

Climatology

Sub-Tropical Oceanic climate (Köppen climate classification Cfb).

Runways

Designator Length Width Surface Rops
13L/31R 3800 45 ASP Yes/Yes
13R/31L 3800 45 ASP Yes/Yes

Airport map

Aerial View

SKYbrary Partners:

Safety knowledge contributed by: